NJE932P BIRK-EPWA
Flight info
| Callsign | NJE932P |
|---|---|
| Flight time | 3h 14m |
| Altitude | 41000 |
| Route | NASBU 63N009W IPTON L197 TUKMU L621 KULUD AMROR N983 ELPOL N195 SORIX SORI6U |
| Aircraft | C750/L-SBDE3FGHRWXY/S |
Departure
| Time | 2026-04-30 11:58 |
|---|---|
| Airport | Reykjavík Domestic Airport (BIRK) |
Arrival
| Time | 2026-04-30 15:12 |
|---|---|
| Airport | Warsaw Chopin Airport (EPWA) |
| Time | Latitude | Longitude | Altitude | Speed | Heading |
|---|---|---|---|---|---|
| 2026-04-30 11:31 | 64.13116 | -21.93446 | 35 ft | 0 kts | 91° |
| 2026-04-30 11:53 | 64.13116 | -21.93469 | 35 ft | 3 kts | 71° |
| 2026-04-30 11:53 | 64.13104 | -21.93525 | 36 ft | 4 kts | 38° |
| 2026-04-30 11:54 | 64.13077 | -21.93543 | 36 ft | 4 kts | 3° |
| 2026-04-30 11:54 | 64.13076 | -21.93543 | 36 ft | 0 kts | 4° |
| 2026-04-30 11:54 | 64.13091 | -21.93545 | 36 ft | 5 kts | 356° |
| 2026-04-30 11:54 | 64.13144 | -21.93554 | 35 ft | 10 kts | 355° |
| 2026-04-30 11:55 | 64.13230 | -21.93572 | 35 ft | 15 kts | 355° |
| 2026-04-30 11:55 | 64.13347 | -21.93595 | 35 ft | 19 kts | 355° |
| 2026-04-30 11:55 | 64.13492 | -21.93626 | 35 ft | 23 kts | 354° |
| 2026-04-30 11:55 | 64.13621 | -21.93789 | 34 ft | 15 kts | 309° |
| 2026-04-30 11:56 | 64.13610 | -21.93884 | 35 ft | 6 kts | 200° |
| 2026-04-30 11:56 | 64.13576 | -21.93883 | 34 ft | 0 kts | 175° |
| 2026-04-30 11:57 | 64.13572 | -21.93883 | 34 ft | 9 kts | 175° |
| 2026-04-30 11:57 | 64.13169 | -21.93806 | 36 ft | 105 kts | 175° |
| 2026-04-30 11:58 | 64.12295 | -21.93644 | 179 ft | 138 kts | 182° |
| 2026-04-30 11:58 | 64.11285 | -21.93478 | 632 ft | 151 kts | 181° |
| 2026-04-30 11:58 | 64.10233 | -21.93375 | 1347 ft | 152 kts | 185° |
| 2026-04-30 11:58 | 64.09176 | -21.92630 | 1786 ft | 184 kts | 149° |
| 2026-04-30 11:59 | 64.08514 | -21.89767 | 2096 ft | 227 kts | 101° |
| 2026-04-30 11:59 | 64.08522 | -21.86113 | 2731 ft | 240 kts | 91° |
| 2026-04-30 11:59 | 64.08587 | -21.82231 | 3492 ft | 248 kts | 92° |
| 2026-04-30 11:59 | 64.08281 | -21.78277 | 3774 ft | 266 kts | 121° |
| 2026-04-30 12:00 | 64.06964 | -21.75507 | 4433 ft | 253 kts | 160° |
| 2026-04-30 12:00 | 64.05505 | -21.73244 | 5277 ft | 266 kts | 137° |
| 2026-04-30 12:00 | 64.04759 | -21.69279 | 6097 ft | 281 kts | 104° |
| 2026-04-30 12:00 | 64.04692 | -21.64788 | 6897 ft | 290 kts | 85° |
| 2026-04-30 12:01 | 64.05316 | -21.60359 | 7714 ft | 295 kts | 68° |
| 2026-04-30 12:01 | 64.06036 | -21.55940 | 8515 ft | 301 kts | 80° |
| 2026-04-30 12:01 | 64.06152 | -21.51176 | 9394 ft | 301 kts | 95° |
| 2026-04-30 12:01 | 64.05829 | -21.46458 | 10155 ft | 302 kts | 108° |
| 2026-04-30 12:02 | 64.05253 | -21.41689 | 10464 ft | 323 kts | 110° |
| 2026-04-30 12:02 | 64.04620 | -21.36539 | 10579 ft | 351 kts | 108° |
| 2026-04-30 12:02 | 64.04103 | -21.30901 | 10886 ft | 369 kts | 104° |
| 2026-04-30 12:02 | 64.03640 | -21.25143 | 11655 ft | 370 kts | 104° |
| 2026-04-30 12:03 | 64.03084 | -21.19363 | 12255 ft | 376 kts | 107° |
| 2026-04-30 12:03 | 64.01897 | -21.07586 | 13553 ft | 386 kts | 105° |
| 2026-04-30 12:03 | 64.01338 | -21.01558 | 14133 ft | 391 kts | 105° |
| 2026-04-30 12:04 | 64.00751 | -20.95483 | 14746 ft | 394 kts | 106° |
| 2026-04-30 12:04 | 64.00139 | -20.89374 | 15345 ft | 397 kts | 106° |
| 2026-04-30 12:04 | 63.99525 | -20.83197 | 15921 ft | 401 kts | 106° |
| 2026-04-30 12:04 | 63.98916 | -20.76964 | 16528 ft | 405 kts | 106° |
| 2026-04-30 12:05 | 63.98295 | -20.70681 | 17149 ft | 408 kts | 106° |
| 2026-04-30 12:05 | 63.97658 | -20.64344 | 17771 ft | 412 kts | 107° |
| 2026-04-30 12:05 | 63.97014 | -20.57952 | 18356 ft | 416 kts | 107° |
| 2026-04-30 12:05 | 63.96365 | -20.51496 | 18895 ft | 420 kts | 107° |
| 2026-04-30 12:06 | 63.95705 | -20.44978 | 19435 ft | 424 kts | 107° |
| 2026-04-30 12:06 | 63.95035 | -20.38403 | 19986 ft | 429 kts | 107° |
| 2026-04-30 12:06 | 63.94515 | -20.31678 | 20450 ft | 437 kts | 98° |
| 2026-04-30 12:06 | 63.94255 | -20.24768 | 21037 ft | 439 kts | 98° |
| 2026-04-30 12:07 | 63.93963 | -20.17827 | 21590 ft | 443 kts | 98° |
| 2026-04-30 12:07 | 63.93635 | -20.10827 | 22137 ft | 447 kts | 99° |
| 2026-04-30 12:07 | 63.93317 | -20.03763 | 22687 ft | 451 kts | 98° |
| 2026-04-30 12:07 | 63.93014 | -19.96637 | 23247 ft | 455 kts | 98° |
| 2026-04-30 12:08 | 63.92702 | -19.89551 | 23742 ft | 458 kts | 98° |
| 2026-04-30 12:08 | 63.92366 | -19.82328 | 24216 ft | 461 kts | 99° |
| 2026-04-30 12:08 | 63.92026 | -19.75045 | 24670 ft | 465 kts | 99° |
| 2026-04-30 12:08 | 63.91689 | -19.67709 | 25148 ft | 468 kts | 98° |
| 2026-04-30 12:09 | 63.91345 | -19.60315 | 25629 ft | 472 kts | 99° |
| 2026-04-30 12:09 | 63.90990 | -19.52884 | 26095 ft | 475 kts | 99° |
| 2026-04-30 12:09 | 63.90628 | -19.45394 | 26553 ft | 479 kts | 99° |
| 2026-04-30 12:09 | 63.90262 | -19.37852 | 27019 ft | 483 kts | 99° |
| 2026-04-30 12:10 | 63.89890 | -19.30250 | 27481 ft | 486 kts | 99° |
| 2026-04-30 12:10 | 63.89509 | -19.22588 | 27954 ft | 490 kts | 99° |
| 2026-04-30 12:10 | 63.89121 | -19.14863 | 28416 ft | 494 kts | 99° |
| 2026-04-30 12:10 | 63.88725 | -19.07078 | 28873 ft | 498 kts | 99° |
| 2026-04-30 12:11 | 63.88324 | -18.99234 | 29338 ft | 502 kts | 100° |
| 2026-04-30 12:11 | 63.87915 | -18.91336 | 29769 ft | 506 kts | 100° |
| 2026-04-30 12:11 | 63.87497 | -18.83369 | 30168 ft | 510 kts | 100° |
| 2026-04-30 12:11 | 63.87072 | -18.75359 | 30551 ft | 513 kts | 100° |
| 2026-04-30 12:12 | 63.86641 | -18.67316 | 30953 ft | 515 kts | 101° |
| 2026-04-30 12:12 | 63.86208 | -18.59282 | 31539 ft | 512 kts | 101° |
| 2026-04-30 12:12 | 63.85771 | -18.51272 | 32089 ft | 511 kts | 101° |
| 2026-04-30 12:12 | 63.85327 | -18.43281 | 32624 ft | 511 kts | 102° |
| 2026-04-30 12:13 | 63.84881 | -18.35306 | 33179 ft | 510 kts | 102° |
| 2026-04-30 12:13 | 63.84433 | -18.27349 | 33729 ft | 509 kts | 102° |
| 2026-04-30 12:13 | 63.83980 | -18.19400 | 34219 ft | 508 kts | 102° |
| 2026-04-30 12:13 | 63.83524 | -18.11472 | 34672 ft | 507 kts | 102° |
| 2026-04-30 12:14 | 63.83063 | -18.03555 | 35142 ft | 506 kts | 102° |
| 2026-04-30 12:14 | 63.82600 | -17.95657 | 35638 ft | 505 kts | 102° |
| 2026-04-30 12:14 | 63.82133 | -17.87775 | 36110 ft | 504 kts | 102° |
| 2026-04-30 12:14 | 63.81663 | -17.79915 | 36591 ft | 504 kts | 102° |
| 2026-04-30 12:15 | 63.81189 | -17.72071 | 37074 ft | 503 kts | 102° |
| 2026-04-30 12:15 | 63.80712 | -17.64239 | 37559 ft | 502 kts | 102° |
| 2026-04-30 12:15 | 63.80232 | -17.56421 | 38049 ft | 501 kts | 102° |
| 2026-04-30 12:15 | 63.79747 | -17.48615 | 38542 ft | 501 kts | 102° |
| 2026-04-30 12:16 | 63.79259 | -17.40822 | 38951 ft | 500 kts | 102° |
| 2026-04-30 12:16 | 63.78768 | -17.33045 | 39341 ft | 499 kts | 102° |
| 2026-04-30 12:16 | 63.78273 | -17.25274 | 39727 ft | 499 kts | 102° |
| 2026-04-30 12:16 | 63.77774 | -17.17523 | 40114 ft | 498 kts | 102° |
| 2026-04-30 12:17 | 63.76766 | -17.02047 | 40872 ft | 497 kts | 102° |
| 2026-04-30 12:17 | 63.75731 | -16.86471 | 40957 ft | 513 kts | 102° |
| 2026-04-30 12:18 | 63.74640 | -16.70253 | 40974 ft | 530 kts | 102° |
| 2026-04-30 12:18 | 63.73496 | -16.53586 | 40974 ft | 544 kts | 102° |
| 2026-04-30 12:19 | 63.72315 | -16.36638 | 40966 ft | 547 kts | 102° |
| 2026-04-30 12:19 | 63.71108 | -16.19667 | 40966 ft | 548 kts | 102° |
| 2026-04-30 12:20 | 63.69883 | -16.02709 | 40966 ft | 548 kts | 103° |
| 2026-04-30 12:20 | 63.68637 | -15.85767 | 40963 ft | 548 kts | 103° |
| 2026-04-30 12:21 | 63.67373 | -15.68854 | 40960 ft | 547 kts | 103° |
| 2026-04-30 12:21 | 63.66089 | -15.51958 | 40965 ft | 547 kts | 103° |
| 2026-04-30 12:22 | 63.64786 | -15.35093 | 40964 ft | 547 kts | 104° |
| 2026-04-30 12:22 | 63.63464 | -15.18249 | 40964 ft | 546 kts | 104° |
| 2026-04-30 12:23 | 63.62123 | -15.01435 | 40966 ft | 546 kts | 104° |
| 2026-04-30 12:23 | 63.60764 | -14.84649 | 40971 ft | 546 kts | 104° |
| 2026-04-30 12:24 | 63.59385 | -14.67885 | 40970 ft | 545 kts | 104° |
| 2026-04-30 12:24 | 63.57988 | -14.51150 | 40971 ft | 545 kts | 105° |
| 2026-04-30 12:25 | 63.56572 | -14.34431 | 40972 ft | 545 kts | 105° |
| 2026-04-30 12:25 | 63.55138 | -14.17747 | 40973 ft | 544 kts | 105° |
| 2026-04-30 12:26 | 63.53685 | -14.01087 | 40975 ft | 544 kts | 105° |
| 2026-04-30 12:26 | 63.52223 | -13.84563 | 40985 ft | 544 kts | 105° |
| 2026-04-30 12:27 | 63.50734 | -13.67963 | 40987 ft | 543 kts | 105° |
| 2026-04-30 12:27 | 63.49228 | -13.51397 | 40987 ft | 543 kts | 106° |
| 2026-04-30 12:28 | 63.47702 | -13.34852 | 40985 ft | 543 kts | 106° |
| 2026-04-30 12:28 | 63.46159 | -13.18339 | 40991 ft | 542 kts | 106° |
| 2026-04-30 12:29 | 63.44598 | -13.01859 | 40992 ft | 542 kts | 107° |
| 2026-04-30 12:29 | 63.43020 | -12.85418 | 40992 ft | 541 kts | 107° |
| 2026-04-30 12:30 | 63.41424 | -12.69001 | 40999 ft | 540 kts | 107° |
| 2026-04-30 12:30 | 63.39811 | -12.52621 | 41001 ft | 540 kts | 107° |
| 2026-04-30 12:31 | 63.38181 | -12.36271 | 41002 ft | 540 kts | 107° |
| 2026-04-30 12:31 | 63.36532 | -12.19943 | 41005 ft | 540 kts | 107° |
| 2026-04-30 12:32 | 63.34866 | -12.03647 | 41005 ft | 539 kts | 108° |
| 2026-04-30 12:32 | 63.33182 | -11.87376 | 41007 ft | 539 kts | 108° |
| 2026-04-30 12:33 | 63.31481 | -11.71141 | 41003 ft | 538 kts | 108° |
| 2026-04-30 12:33 | 63.29763 | -11.54935 | 41015 ft | 538 kts | 108° |
| 2026-04-30 12:34 | 63.28021 | -11.38705 | 41017 ft | 540 kts | 108° |
| 2026-04-30 12:34 | 63.26264 | -11.22509 | 41013 ft | 539 kts | 108° |
| 2026-04-30 12:35 | 63.24789 | -11.09072 | 41017 ft | 539 kts | 108° |
| 2026-04-30 12:35 | 63.22999 | -10.92929 | 41015 ft | 539 kts | 109° |
| 2026-04-30 12:36 | 63.21191 | -10.76807 | 41020 ft | 538 kts | 109° |
| 2026-04-30 12:36 | 63.19366 | -10.60715 | 41023 ft | 538 kts | 109° |
| 2026-04-30 12:37 | 63.17523 | -10.44649 | 41020 ft | 538 kts | 109° |
| 2026-04-30 12:37 | 63.15663 | -10.28605 | 41026 ft | 538 kts | 109° |
| 2026-04-30 12:38 | 63.13784 | -10.12579 | 41023 ft | 538 kts | 109° |
| 2026-04-30 12:38 | 63.11889 | -9.96589 | 41025 ft | 538 kts | 109° |
| 2026-04-30 12:39 | 63.09977 | -9.80632 | 41025 ft | 537 kts | 110° |
| 2026-04-30 12:39 | 63.08054 | -9.64753 | 41030 ft | 536 kts | 110° |
| 2026-04-30 12:40 | 63.06114 | -9.48896 | 41032 ft | 535 kts | 110° |
| 2026-04-30 12:40 | 63.04170 | -9.33178 | 41040 ft | 535 kts | 110° |
| 2026-04-30 12:41 | 63.02197 | -9.17382 | 41038 ft | 534 kts | 110° |
| 2026-04-30 12:41 | 63.00215 | -9.01624 | 41055 ft | 534 kts | 109° |
| 2026-04-30 12:42 | 62.98874 | -8.85442 | 41060 ft | 539 kts | 103° |
| 2026-04-30 12:42 | 62.97639 | -8.69198 | 41070 ft | 538 kts | 104° |
| 2026-04-30 12:43 | 62.96335 | -8.53026 | 41068 ft | 537 kts | 104° |
| 2026-04-30 12:43 | 62.95061 | -8.36851 | 41065 ft | 537 kts | 104° |
| 2026-04-30 12:44 | 62.93731 | -8.20734 | 41066 ft | 536 kts | 104° |
| 2026-04-30 12:44 | 62.92413 | -8.04621 | 41075 ft | 536 kts | 105° |
| 2026-04-30 12:45 | 62.91057 | -7.88542 | 41079 ft | 536 kts | 105° |
| 2026-04-30 12:45 | 62.89697 | -7.72481 | 41079 ft | 535 kts | 105° |
| 2026-04-30 12:46 | 62.88311 | -7.56451 | 41084 ft | 535 kts | 105° |
| 2026-04-30 12:46 | 62.86913 | -7.40439 | 41096 ft | 535 kts | 105° |
| 2026-04-30 12:47 | 62.85494 | -7.24452 | 41093 ft | 535 kts | 105° |
| 2026-04-30 12:47 | 62.84059 | -7.08482 | 41106 ft | 535 kts | 105° |
| 2026-04-30 12:48 | 62.82605 | -6.92533 | 41105 ft | 535 kts | 105° |
| 2026-04-30 12:48 | 62.81134 | -6.76600 | 41108 ft | 535 kts | 105° |
| 2026-04-30 12:49 | 62.79655 | -6.60786 | 41114 ft | 535 kts | 106° |
| 2026-04-30 12:49 | 62.78148 | -6.44890 | 41114 ft | 534 kts | 106° |
| 2026-04-30 12:50 | 62.76624 | -6.29010 | 41121 ft | 534 kts | 106° |
| 2026-04-30 12:50 | 62.75077 | -6.13111 | 41126 ft | 536 kts | 106° |
| 2026-04-30 12:51 | 62.73514 | -5.97222 | 41129 ft | 535 kts | 106° |
| 2026-04-30 12:51 | 62.71931 | -5.81350 | 41134 ft | 536 kts | 106° |
| 2026-04-30 12:52 | 62.70332 | -5.65506 | 41135 ft | 535 kts | 107° |
| 2026-04-30 12:52 | 62.68714 | -5.49675 | 41141 ft | 535 kts | 107° |
| 2026-04-30 12:53 | 62.67080 | -5.33868 | 41144 ft | 535 kts | 107° |
| 2026-04-30 12:53 | 62.65427 | -5.18079 | 41151 ft | 535 kts | 107° |
| 2026-04-30 12:54 | 62.63758 | -5.02312 | 41155 ft | 535 kts | 107° |
| 2026-04-30 12:54 | 62.62083 | -4.86682 | 41162 ft | 535 kts | 107° |
| 2026-04-30 12:55 | 62.60381 | -4.70969 | 41167 ft | 534 kts | 107° |
| 2026-04-30 12:55 | 62.58661 | -4.55282 | 41170 ft | 534 kts | 107° |
| 2026-04-30 12:56 | 62.56926 | -4.39631 | 41172 ft | 533 kts | 108° |
| 2026-04-30 12:56 | 62.55174 | -4.24008 | 41173 ft | 533 kts | 108° |
| 2026-04-30 12:57 | 62.53407 | -4.08417 | 41174 ft | 533 kts | 108° |
| 2026-04-30 12:57 | 62.51622 | -3.92845 | 41181 ft | 532 kts | 108° |
| 2026-04-30 12:58 | 62.49823 | -3.77311 | 41185 ft | 532 kts | 108° |
| 2026-04-30 12:58 | 62.48007 | -3.61805 | 41183 ft | 532 kts | 108° |
| 2026-04-30 12:59 | 62.46175 | -3.46321 | 41190 ft | 531 kts | 108° |
| 2026-04-30 12:59 | 62.44326 | -3.30871 | 41199 ft | 531 kts | 109° |
| 2026-04-30 13:00 | 62.42462 | -3.15445 | 41200 ft | 531 kts | 109° |
| 2026-04-30 13:00 | 62.40581 | -3.00037 | 41199 ft | 531 kts | 109° |
| 2026-04-30 13:01 | 62.38684 | -2.84666 | 41198 ft | 531 kts | 109° |
| 2026-04-30 13:01 | 62.36771 | -2.69315 | 41200 ft | 531 kts | 109° |
| 2026-04-30 13:02 | 62.34840 | -2.53983 | 41206 ft | 530 kts | 109° |
| 2026-04-30 13:02 | 62.32893 | -2.38668 | 41214 ft | 530 kts | 110° |
| 2026-04-30 13:03 | 62.30942 | -2.23481 | 41220 ft | 530 kts | 110° |
| 2026-04-30 13:03 | 62.28963 | -2.08220 | 41213 ft | 530 kts | 110° |
| 2026-04-30 13:04 | 62.26968 | -1.92984 | 41218 ft | 530 kts | 110° |
| 2026-04-30 13:04 | 62.24957 | -1.77773 | 41224 ft | 530 kts | 110° |
| 2026-04-30 13:05 | 62.22930 | -1.62584 | 41223 ft | 530 kts | 110° |
| 2026-04-30 13:06 | 62.19858 | -1.39850 | 41230 ft | 529 kts | 110° |
| 2026-04-30 13:06 | 62.17791 | -1.24726 | 41235 ft | 529 kts | 110° |
| 2026-04-30 13:07 | 62.15708 | -1.09622 | 41237 ft | 529 kts | 110° |
| 2026-04-30 13:07 | 62.13610 | -0.94556 | 41240 ft | 529 kts | 111° |
| 2026-04-30 13:08 | 62.11496 | -0.79507 | 41254 ft | 529 kts | 111° |
| 2026-04-30 13:08 | 62.09366 | -0.64488 | 41252 ft | 528 kts | 111° |
| 2026-04-30 13:09 | 62.07220 | -0.49492 | 41258 ft | 528 kts | 111° |
| 2026-04-30 13:09 | 62.05059 | -0.34522 | 41265 ft | 528 kts | 111° |
| 2026-04-30 13:10 | 62.02897 | -0.19678 | 41274 ft | 528 kts | 111° |
| 2026-04-30 13:10 | 62.00660 | -0.04691 | 41262 ft | 526 kts | 114° |
| 2026-04-30 13:11 | 61.97231 | 0.08806 | 41281 ft | 515 kts | 130° |
| 2026-04-30 13:11 | 61.92904 | 0.20924 | 41296 ft | 516 kts | 130° |
| 2026-04-30 13:12 | 61.88858 | 0.33389 | 41306 ft | 516 kts | 129° |
| 2026-04-30 13:12 | 61.84624 | 0.45636 | 41310 ft | 515 kts | 130° |
| 2026-04-30 13:13 | 61.78375 | 0.64125 | 41311 ft | 515 kts | 130° |
| 2026-04-30 13:14 | 61.72052 | 0.82436 | 41313 ft | 514 kts | 130° |
| 2026-04-30 13:14 | 61.65721 | 1.00687 | 41319 ft | 514 kts | 130° |
| 2026-04-30 13:15 | 61.59381 | 1.18869 | 41332 ft | 514 kts | 130° |
| 2026-04-30 13:16 | 61.55133 | 1.30940 | 41332 ft | 514 kts | 130° |
| 2026-04-30 13:16 | 61.50878 | 1.42987 | 41337 ft | 514 kts | 130° |
| 2026-04-30 13:17 | 61.44501 | 1.60913 | 41345 ft | 514 kts | 130° |
| 2026-04-30 13:18 | 61.38070 | 1.78848 | 41358 ft | 514 kts | 130° |
| 2026-04-30 13:18 | 61.31619 | 1.96703 | 41355 ft | 514 kts | 130° |
| 2026-04-30 13:19 | 61.27302 | 2.08576 | 41369 ft | 514 kts | 130° |
| 2026-04-30 13:19 | 61.22976 | 2.20410 | 41363 ft | 514 kts | 130° |
| 2026-04-30 13:20 | 61.18641 | 2.32210 | 41375 ft | 514 kts | 130° |
| 2026-04-30 13:20 | 61.14298 | 2.43969 | 41381 ft | 514 kts | 130° |
| 2026-04-30 13:21 | 61.09946 | 2.55696 | 41384 ft | 514 kts | 130° |
| 2026-04-30 13:22 | 61.03401 | 2.73218 | 41393 ft | 513 kts | 130° |
| 2026-04-30 13:22 | 60.96837 | 2.90659 | 41399 ft | 513 kts | 130° |
| 2026-04-30 13:23 | 60.90251 | 3.08024 | 41401 ft | 513 kts | 131° |
| 2026-04-30 13:24 | 60.81414 | 3.31124 | 41404 ft | 515 kts | 131° |
| 2026-04-30 13:25 | 60.73285 | 3.52171 | 41411 ft | 515 kts | 131° |
| 2026-04-30 13:26 | 60.62136 | 3.80725 | 41427 ft | 515 kts | 131° |
| 2026-04-30 13:28 | 60.50927 | 4.09084 | 41440 ft | 515 kts | 131° |
| 2026-04-30 13:28 | 60.44174 | 4.26003 | 41452 ft | 515 kts | 131° |
| 2026-04-30 13:29 | 60.35135 | 4.48456 | 41452 ft | 514 kts | 131° |
| 2026-04-30 13:31 | 60.23785 | 4.76343 | 41464 ft | 514 kts | 131° |
| 2026-04-30 13:32 | 60.12409 | 5.03958 | 41468 ft | 514 kts | 131° |
| 2026-04-30 13:33 | 60.03243 | 5.25971 | 41469 ft | 514 kts | 131° |
| 2026-04-30 13:34 | 59.96346 | 5.42399 | 41471 ft | 514 kts | 131° |
| 2026-04-30 13:35 | 59.87114 | 5.64205 | 41469 ft | 515 kts | 131° |
| 2026-04-30 13:36 | 59.77845 | 5.85892 | 41464 ft | 515 kts | 131° |
| 2026-04-30 13:36 | 59.70873 | 6.02072 | 41459 ft | 515 kts | 131° |
| 2026-04-30 13:37 | 59.63874 | 6.18199 | 41448 ft | 515 kts | 131° |
| 2026-04-30 13:38 | 59.56860 | 6.34251 | 41445 ft | 515 kts | 131° |
| 2026-04-30 13:39 | 59.47503 | 6.55491 | 41438 ft | 515 kts | 132° |
| 2026-04-30 13:40 | 59.40440 | 6.71396 | 41443 ft | 515 kts | 132° |
| 2026-04-30 13:40 | 59.35721 | 6.81959 | 41439 ft | 515 kts | 132° |
| 2026-04-30 13:41 | 59.30988 | 6.92508 | 41448 ft | 516 kts | 132° |
| 2026-04-30 13:41 | 59.26247 | 7.03025 | 41445 ft | 516 kts | 132° |
| 2026-04-30 13:42 | 59.21492 | 7.13525 | 41434 ft | 516 kts | 132° |
| 2026-04-30 13:42 | 59.14344 | 7.29218 | 41419 ft | 516 kts | 132° |
| 2026-04-30 13:43 | 59.09570 | 7.39644 | 41404 ft | 516 kts | 132° |
| 2026-04-30 13:43 | 59.04787 | 7.50038 | 41387 ft | 516 kts | 132° |
| 2026-04-30 13:44 | 58.99995 | 7.60405 | 41379 ft | 516 kts | 132° |
| 2026-04-30 13:44 | 58.95192 | 7.70751 | 41370 ft | 516 kts | 132° |
| 2026-04-30 13:45 | 58.87960 | 7.86240 | 41359 ft | 517 kts | 132° |
| 2026-04-30 13:46 | 58.83125 | 7.96536 | 41360 ft | 517 kts | 132° |
| 2026-04-30 13:46 | 58.78279 | 8.06811 | 41358 ft | 518 kts | 132° |
| 2026-04-30 13:47 | 58.73455 | 8.16994 | 41357 ft | 518 kts | 132° |
| 2026-04-30 13:47 | 58.68587 | 8.27225 | 41357 ft | 518 kts | 132° |
| 2026-04-30 13:48 | 58.63712 | 8.37423 | 41362 ft | 518 kts | 133° |
| 2026-04-30 13:48 | 58.58829 | 8.47595 | 41367 ft | 518 kts | 133° |
| 2026-04-30 13:49 | 58.53941 | 8.57729 | 41370 ft | 518 kts | 133° |
| 2026-04-30 13:49 | 58.49048 | 8.67831 | 41374 ft | 517 kts | 133° |
| 2026-04-30 13:50 | 58.44153 | 8.77891 | 41380 ft | 517 kts | 133° |
| 2026-04-30 13:50 | 58.36790 | 8.92944 | 41391 ft | 518 kts | 133° |
| 2026-04-30 13:51 | 58.31866 | 9.02953 | 41396 ft | 518 kts | 133° |
| 2026-04-30 13:51 | 58.26926 | 9.12952 | 41404 ft | 519 kts | 133° |
| 2026-04-30 13:52 | 58.21971 | 9.22937 | 41407 ft | 520 kts | 133° |
| 2026-04-30 13:52 | 58.17002 | 9.32908 | 41411 ft | 520 kts | 133° |
| 2026-04-30 13:53 | 58.12021 | 9.42861 | 41406 ft | 521 kts | 133° |
| 2026-04-30 13:53 | 58.07027 | 9.52793 | 41415 ft | 521 kts | 133° |
| 2026-04-30 13:54 | 58.02054 | 9.62643 | 41419 ft | 521 kts | 133° |
| 2026-04-30 13:54 | 57.97045 | 9.72520 | 41427 ft | 521 kts | 133° |
| 2026-04-30 13:55 | 57.92024 | 9.82380 | 41427 ft | 522 kts | 133° |
| 2026-04-30 13:55 | 57.86995 | 9.92212 | 41432 ft | 522 kts | 133° |
| 2026-04-30 13:56 | 57.81960 | 10.02013 | 41435 ft | 522 kts | 133° |
| 2026-04-30 13:56 | 57.76918 | 10.11786 | 41442 ft | 522 kts | 133° |
| 2026-04-30 13:57 | 57.71862 | 10.21544 | 41448 ft | 521 kts | 133° |
| 2026-04-30 13:57 | 57.66809 | 10.31255 | 41452 ft | 521 kts | 133° |
| 2026-04-30 13:58 | 57.59231 | 10.45742 | 41448 ft | 519 kts | 133° |
| 2026-04-30 13:59 | 57.54181 | 10.55344 | 41443 ft | 519 kts | 134° |
| 2026-04-30 13:59 | 57.49132 | 10.64906 | 41442 ft | 518 kts | 134° |
| 2026-04-30 14:00 | 57.44082 | 10.74427 | 41446 ft | 517 kts | 134° |
| 2026-04-30 14:00 | 57.36499 | 10.88652 | 41443 ft | 517 kts | 134° |
| 2026-04-30 14:01 | 57.31430 | 10.98112 | 41447 ft | 518 kts | 134° |
| 2026-04-30 14:01 | 57.26387 | 11.07482 | 41444 ft | 518 kts | 134° |
| 2026-04-30 14:02 | 57.21298 | 11.16902 | 41439 ft | 518 kts | 134° |
| 2026-04-30 14:02 | 57.16198 | 11.26301 | 41441 ft | 519 kts | 134° |
| 2026-04-30 14:03 | 57.11085 | 11.35685 | 41450 ft | 519 kts | 134° |
| 2026-04-30 14:03 | 57.05972 | 11.45033 | 41444 ft | 519 kts | 134° |
| 2026-04-30 14:04 | 57.00846 | 11.54363 | 41445 ft | 519 kts | 134° |
| 2026-04-30 14:04 | 56.95715 | 11.63666 | 41448 ft | 519 kts | 134° |
| 2026-04-30 14:05 | 56.90573 | 11.72949 | 41445 ft | 519 kts | 134° |
| 2026-04-30 14:05 | 56.85427 | 11.82203 | 41446 ft | 519 kts | 134° |
| 2026-04-30 14:06 | 56.77696 | 11.96034 | 41450 ft | 519 kts | 134° |
| 2026-04-30 14:07 | 56.69936 | 12.09833 | 41450 ft | 520 kts | 134° |
| 2026-04-30 14:08 | 56.62154 | 12.23586 | 41447 ft | 520 kts | 134° |
| 2026-04-30 14:08 | 56.54355 | 12.37286 | 41452 ft | 520 kts | 134° |
| 2026-04-30 14:09 | 56.49149 | 12.46385 | 41454 ft | 520 kts | 134° |
| 2026-04-30 14:10 | 56.41357 | 12.59935 | 41459 ft | 520 kts | 134° |
| 2026-04-30 14:10 | 56.36132 | 12.68979 | 41456 ft | 520 kts | 134° |
| 2026-04-30 14:11 | 56.30899 | 12.77997 | 41463 ft | 521 kts | 134° |
| 2026-04-30 14:11 | 56.25658 | 12.86994 | 41466 ft | 521 kts | 134° |
| 2026-04-30 14:12 | 56.20408 | 12.95970 | 41461 ft | 521 kts | 134° |
| 2026-04-30 14:12 | 56.15150 | 13.04926 | 41435 ft | 521 kts | 134° |
| 2026-04-30 14:13 | 56.09886 | 13.13854 | 41437 ft | 521 kts | 134° |
| 2026-04-30 14:13 | 56.04615 | 13.22760 | 41438 ft | 521 kts | 134° |
| 2026-04-30 14:14 | 55.99340 | 13.31638 | 41437 ft | 521 kts | 134° |
| 2026-04-30 14:14 | 55.94056 | 13.40496 | 41435 ft | 521 kts | 134° |
| 2026-04-30 14:15 | 55.88766 | 13.49329 | 41425 ft | 521 kts | 134° |
| 2026-04-30 14:15 | 55.84365 | 13.56651 | 41402 ft | 521 kts | 134° |
| 2026-04-30 14:16 | 55.79063 | 13.65441 | 41397 ft | 521 kts | 134° |
| 2026-04-30 14:16 | 55.73755 | 13.74207 | 41396 ft | 521 kts | 134° |
| 2026-04-30 14:17 | 55.68441 | 13.82948 | 41396 ft | 521 kts | 134° |
| 2026-04-30 14:17 | 55.63119 | 13.91669 | 41396 ft | 521 kts | 134° |
| 2026-04-30 14:18 | 55.57789 | 14.00368 | 41391 ft | 522 kts | 134° |
| 2026-04-30 14:18 | 55.49780 | 14.13377 | 41394 ft | 521 kts | 134° |
| 2026-04-30 14:19 | 55.41757 | 14.26335 | 41398 ft | 522 kts | 134° |
| 2026-04-30 14:20 | 55.36399 | 14.34948 | 41394 ft | 522 kts | 134° |
| 2026-04-30 14:20 | 55.28347 | 14.47826 | 41402 ft | 522 kts | 134° |
| 2026-04-30 14:21 | 55.22973 | 14.56382 | 41401 ft | 522 kts | 134° |
| 2026-04-30 14:22 | 55.14898 | 14.69175 | 41409 ft | 522 kts | 134° |
| 2026-04-30 14:22 | 55.06814 | 14.81912 | 41401 ft | 522 kts | 134° |
| 2026-04-30 14:23 | 54.96009 | 14.98822 | 41406 ft | 522 kts | 134° |
| 2026-04-30 14:24 | 54.87978 | 15.11602 | 41388 ft | 519 kts | 129° |
| 2026-04-30 14:25 | 54.78312 | 15.30076 | 41410 ft | 520 kts | 128° |
| 2026-04-30 14:26 | 54.71005 | 15.43942 | 41412 ft | 520 kts | 128° |
| 2026-04-30 14:27 | 54.63649 | 15.57744 | 41415 ft | 521 kts | 128° |
| 2026-04-30 14:27 | 54.58980 | 15.67232 | 41406 ft | 515 kts | 121° |
| 2026-04-30 14:28 | 54.52695 | 15.82297 | 41418 ft | 517 kts | 121° |
| 2026-04-30 14:28 | 54.48443 | 15.92260 | 41417 ft | 516 kts | 121° |
| 2026-04-30 14:29 | 54.39958 | 16.12190 | 41423 ft | 516 kts | 121° |
| 2026-04-30 14:31 | 54.29311 | 16.36973 | 41419 ft | 516 kts | 121° |
| 2026-04-30 14:31 | 54.22920 | 16.51719 | 41420 ft | 517 kts | 121° |
| 2026-04-30 14:32 | 54.16481 | 16.66494 | 41411 ft | 517 kts | 121° |
| 2026-04-30 14:33 | 54.12179 | 16.76313 | 41406 ft | 517 kts | 121° |
| 2026-04-30 14:33 | 54.05712 | 16.91004 | 41397 ft | 517 kts | 122° |
| 2026-04-30 14:34 | 54.01393 | 17.00767 | 41397 ft | 517 kts | 122° |
| 2026-04-30 14:34 | 53.97057 | 17.10533 | 41391 ft | 519 kts | 122° |
| 2026-04-30 14:35 | 53.90527 | 17.25161 | 41388 ft | 518 kts | 122° |
| 2026-04-30 14:36 | 53.86165 | 17.34888 | 41385 ft | 518 kts | 122° |
| 2026-04-30 14:36 | 53.81795 | 17.44594 | 41384 ft | 518 kts | 122° |
| 2026-04-30 14:37 | 53.77417 | 17.54282 | 41383 ft | 518 kts | 122° |
| 2026-04-30 14:37 | 53.73028 | 17.63955 | 41368 ft | 519 kts | 122° |
| 2026-04-30 14:38 | 53.68628 | 17.73614 | 41387 ft | 519 kts | 122° |
| 2026-04-30 14:38 | 53.66448 | 17.78379 | 41187 ft | 504 kts | 122° |
| 2026-04-30 14:38 | 53.64341 | 17.82963 | 40719 ft | 485 kts | 122° |
| 2026-04-30 14:38 | 53.62315 | 17.87386 | 40277 ft | 470 kts | 121° |
| 2026-04-30 14:39 | 53.60349 | 17.91679 | 39848 ft | 456 kts | 121° |
| 2026-04-30 14:39 | 53.58427 | 17.95862 | 39437 ft | 449 kts | 121° |
| 2026-04-30 14:39 | 53.56521 | 18.00001 | 39033 ft | 448 kts | 120° |
| 2026-04-30 14:40 | 53.52672 | 18.08350 | 38177 ft | 455 kts | 120° |
| 2026-04-30 14:40 | 53.50750 | 18.12494 | 37771 ft | 456 kts | 120° |
| 2026-04-30 14:40 | 53.48801 | 18.16695 | 37355 ft | 456 kts | 120° |
| 2026-04-30 14:40 | 53.46853 | 18.20890 | 36940 ft | 455 kts | 119° |
| 2026-04-30 14:41 | 53.44906 | 18.25077 | 36525 ft | 454 kts | 119° |
| 2026-04-30 14:41 | 53.42964 | 18.29246 | 36113 ft | 453 kts | 118° |
| 2026-04-30 14:41 | 53.41073 | 18.33296 | 35709 ft | 452 kts | 118° |
| 2026-04-30 14:41 | 53.39136 | 18.37439 | 35301 ft | 451 kts | 118° |
| 2026-04-30 14:42 | 53.37177 | 18.41623 | 34890 ft | 450 kts | 117° |
| 2026-04-30 14:42 | 53.35274 | 18.45681 | 34475 ft | 449 kts | 117° |
| 2026-04-30 14:42 | 53.33349 | 18.49780 | 33994 ft | 447 kts | 117° |
| 2026-04-30 14:42 | 53.31422 | 18.53875 | 33585 ft | 448 kts | 117° |
| 2026-04-30 14:43 | 53.29489 | 18.57983 | 33173 ft | 450 kts | 117° |
| 2026-04-30 14:43 | 53.27546 | 18.62099 | 32760 ft | 452 kts | 117° |
| 2026-04-30 14:43 | 53.25595 | 18.66221 | 32347 ft | 453 kts | 117° |
| 2026-04-30 14:43 | 53.23639 | 18.70350 | 31939 ft | 454 kts | 117° |
| 2026-04-30 14:44 | 53.21676 | 18.74490 | 31523 ft | 455 kts | 117° |
| 2026-04-30 14:44 | 53.19707 | 18.78635 | 31101 ft | 457 kts | 117° |
| 2026-04-30 14:44 | 53.17726 | 18.82796 | 30690 ft | 457 kts | 117° |
| 2026-04-30 14:44 | 53.15754 | 18.86920 | 30243 ft | 453 kts | 117° |
| 2026-04-30 14:45 | 53.13797 | 18.91015 | 29818 ft | 450 kts | 117° |
| 2026-04-30 14:45 | 53.11855 | 18.95084 | 29408 ft | 448 kts | 117° |
| 2026-04-30 14:45 | 53.09918 | 18.99133 | 28993 ft | 446 kts | 118° |
| 2026-04-30 14:45 | 53.07984 | 19.03158 | 28590 ft | 445 kts | 118° |
| 2026-04-30 14:46 | 53.06056 | 19.07166 | 28188 ft | 443 kts | 118° |
| 2026-04-30 14:46 | 53.04137 | 19.11157 | 27781 ft | 441 kts | 118° |
| 2026-04-30 14:46 | 53.02224 | 19.15126 | 27378 ft | 439 kts | 118° |
| 2026-04-30 14:46 | 53.00317 | 19.19076 | 26978 ft | 438 kts | 118° |
| 2026-04-30 14:47 | 52.98414 | 19.23009 | 26582 ft | 436 kts | 118° |
| 2026-04-30 14:47 | 52.96520 | 19.26920 | 26186 ft | 434 kts | 119° |
| 2026-04-30 14:47 | 52.94629 | 19.30818 | 25794 ft | 433 kts | 119° |
| 2026-04-30 14:47 | 52.92745 | 19.34696 | 25400 ft | 431 kts | 119° |
| 2026-04-30 14:48 | 52.90865 | 19.38558 | 25007 ft | 430 kts | 119° |
| 2026-04-30 14:48 | 52.88992 | 19.42403 | 24617 ft | 428 kts | 120° |
| 2026-04-30 14:48 | 52.87121 | 19.46236 | 24228 ft | 427 kts | 120° |
| 2026-04-30 14:48 | 52.85258 | 19.50048 | 23812 ft | 425 kts | 120° |
| 2026-04-30 14:49 | 52.83405 | 19.53829 | 23403 ft | 422 kts | 120° |
| 2026-04-30 14:49 | 52.81564 | 19.57583 | 23021 ft | 419 kts | 120° |
| 2026-04-30 14:49 | 52.79758 | 19.61264 | 22644 ft | 417 kts | 120° |
| 2026-04-30 14:49 | 52.77937 | 19.64967 | 22264 ft | 415 kts | 121° |
| 2026-04-30 14:50 | 52.74318 | 19.72308 | 21509 ft | 409 kts | 121° |
| 2026-04-30 14:50 | 52.72526 | 19.75938 | 21139 ft | 407 kts | 121° |
| 2026-04-30 14:51 | 52.69185 | 19.82898 | 20381 ft | 364 kts | 113° |
| 2026-04-30 14:51 | 52.67966 | 19.86477 | 20086 ft | 364 kts | 110° |
| 2026-04-30 14:51 | 52.65470 | 19.93722 | 19438 ft | 364 kts | 112° |
| 2026-04-30 14:52 | 52.64199 | 19.97318 | 19104 ft | 362 kts | 112° |
| 2026-04-30 14:52 | 52.61712 | 20.04486 | 18418 ft | 359 kts | 112° |
| 2026-04-30 14:52 | 52.60469 | 20.08039 | 18080 ft | 358 kts | 112° |
| 2026-04-30 14:53 | 52.57992 | 20.15098 | 17432 ft | 355 kts | 112° |
| 2026-04-30 14:53 | 52.56763 | 20.18605 | 17110 ft | 353 kts | 112° |
| 2026-04-30 14:54 | 52.54314 | 20.25563 | 16470 ft | 350 kts | 113° |
| 2026-04-30 14:54 | 52.51958 | 20.32210 | 15842 ft | 318 kts | 113° |
| 2026-04-30 14:55 | 52.49825 | 20.38331 | 15282 ft | 305 kts | 112° |
| 2026-04-30 14:55 | 52.48783 | 20.41368 | 15010 ft | 306 kts | 112° |
| 2026-04-30 14:55 | 52.46663 | 20.47433 | 14461 ft | 306 kts | 112° |
| 2026-04-30 14:56 | 52.44553 | 20.53480 | 13878 ft | 304 kts | 113° |
| 2026-04-30 14:56 | 52.42464 | 20.59450 | 13325 ft | 301 kts | 113° |
| 2026-04-30 14:57 | 52.41424 | 20.62417 | 13056 ft | 300 kts | 113° |
| 2026-04-30 14:57 | 52.39347 | 20.68331 | 12503 ft | 299 kts | 114° |
| 2026-04-30 14:58 | 52.37280 | 20.74202 | 11965 ft | 296 kts | 114° |
| 2026-04-30 14:58 | 52.36252 | 20.77116 | 11693 ft | 295 kts | 114° |
| 2026-04-30 14:58 | 52.34218 | 20.82872 | 11161 ft | 293 kts | 114° |
| 2026-04-30 14:59 | 52.32180 | 20.88625 | 10627 ft | 292 kts | 115° |
| 2026-04-30 15:00 | 52.29141 | 20.97180 | 9809 ft | 288 kts | 115° |
| 2026-04-30 15:00 | 52.26986 | 21.02681 | 9208 ft | 293 kts | 131° |
| 2026-04-30 15:01 | 52.23454 | 21.06062 | 8441 ft | 288 kts | 150° |
| 2026-04-30 15:01 | 52.22267 | 21.07047 | 8239 ft | 279 kts | 150° |
| 2026-04-30 15:01 | 52.18475 | 21.10338 | 7646 ft | 257 kts | 149° |
| 2026-04-30 15:02 | 52.16901 | 21.11694 | 7411 ft | 255 kts | 150° |
| 2026-04-30 15:02 | 52.15334 | 21.13037 | 7171 ft | 254 kts | 149° |
| 2026-04-30 15:03 | 52.10705 | 21.17094 | 6477 ft | 251 kts | 149° |
| 2026-04-30 15:03 | 52.08165 | 21.19308 | 6102 ft | 248 kts | 149° |
| 2026-04-30 15:04 | 52.05120 | 21.21971 | 5645 ft | 246 kts | 149° |
| 2026-04-30 15:04 | 52.00529 | 21.25638 | 4870 ft | 268 kts | 169° |
| 2026-04-30 15:05 | 51.97081 | 21.20890 | 4323 ft | 207 kts | 268° |
| 2026-04-30 15:06 | 51.97085 | 21.16608 | 4209 ft | 182 kts | 272° |
| 2026-04-30 15:06 | 51.97960 | 21.13015 | 3730 ft | 173 kts | 321° |
| 2026-04-30 15:07 | 52.00046 | 21.11119 | 3283 ft | 172 kts | 333° |
| 2026-04-30 15:07 | 52.02096 | 21.09325 | 3021 ft | 160 kts | 333° |
| 2026-04-30 15:08 | 52.03993 | 21.07671 | 2999 ft | 142 kts | 334° |
| 2026-04-30 15:08 | 52.06554 | 21.05443 | 2417 ft | 138 kts | 334° |
| 2026-04-30 15:09 | 52.08064 | 21.04125 | 2031 ft | 110 kts | 333° |
| 2026-04-30 15:09 | 52.09445 | 21.02933 | 1767 ft | 112 kts | 333° |
| 2026-04-30 15:10 | 52.10809 | 21.01692 | 1425 ft | 111 kts | 333° |
| 2026-04-30 15:11 | 52.13529 | 20.99365 | 812 ft | 110 kts | 332° |
| 2026-04-30 15:11 | 52.14882 | 20.98185 | 477 ft | 109 kts | 331° |
| 2026-04-30 15:12 | 52.16510 | 20.96769 | 336 ft | 36 kts | 331° |
| 2026-04-30 15:13 | 52.16851 | 20.96521 | 334 ft | 25 kts | 351° |
| 2026-04-30 15:14 | 52.17052 | 20.96519 | 335 ft | 0 kts | 12° |
| 2026-04-30 15:14 | 52.17247 | 20.96522 | 335 ft | 25 kts | 332° |
| 2026-04-30 15:16 | 52.17980 | 20.95969 | 333 ft | 10 kts | 61° |
| 2026-04-30 15:17 | 52.18040 | 20.96098 | 335 ft | 0 kts | 264° |
| 2026-04-30 15:18 | 52.18039 | 20.96095 | 335 ft | 0 kts | 246° |